createdAt,value
2023-05-23T00:00:17.804Z,1010.984591
2023-05-23T00:05:17.799Z,1010.942718
2023-05-23T00:10:17.693Z,1010.949217
2023-05-23T00:15:17.607Z,1010.918968
2023-05-23T00:20:17.559Z,1010.877104
2023-05-23T00:25:18.035Z,1010.757208
2023-05-23T00:30:17.516Z,1010.675859
2023-05-23T00:35:17.869Z,1010.555607
2023-05-23T00:40:17.540Z,1010.542384
2023-05-23T00:45:17.734Z,1010.556160
2023-05-23T00:50:17.549Z,1010.521016
2023-05-23T00:55:17.644Z,1010.468341
2023-05-23T01:00:17.608Z,1010.376685
2023-05-23T01:05:17.557Z,1010.395915
2023-05-23T01:10:17.717Z,1010.319047
2023-05-23T01:15:17.633Z,1010.207820
2023-05-23T01:20:17.765Z,1010.234784
2023-05-23T01:25:17.800Z,1010.248658
2023-05-23T01:30:17.646Z,1010.181412
2023-05-23T01:35:17.735Z,1010.191362
2023-05-23T01:40:17.514Z,1010.216952
2023-05-23T01:45:17.974Z,1010.272746
2023-05-23T01:50:17.687Z,1010.303440
2023-05-23T01:55:17.900Z,1010.254714
2023-05-23T02:00:17.928Z,1010.229747
2023-05-23T02:05:17.534Z,1010.192312
2023-05-23T02:10:17.557Z,1010.175135
2023-05-23T02:15:17.895Z,1010.114499
2023-05-23T02:20:17.605Z,1010.170583
2023-05-23T02:25:17.911Z,1010.206347
2023-05-23T02:30:17.827Z,1010.187401
2023-05-23T02:35:17.935Z,1010.109760
2023-05-23T02:40:17.598Z,1010.117777
2023-05-23T02:45:17.943Z,1010.298670
2023-05-23T02:50:17.809Z,1010.304789
2023-05-23T02:55:17.457Z,1010.349545
2023-05-23T03:00:17.975Z,1010.394264
2023-05-23T03:05:17.933Z,1010.462102
2023-05-23T03:10:17.839Z,1010.465680
2023-05-23T03:15:17.817Z,1010.472807
2023-05-23T03:20:17.889Z,1010.436532
2023-05-23T03:25:18.605Z,1010.450019
2023-05-23T03:30:17.763Z,1010.492228
2023-05-23T03:35:17.569Z,1010.483259
2023-05-23T03:40:17.987Z,1010.441458
2023-05-23T03:45:17.616Z,1010.428248
2023-05-23T03:50:17.620Z,1010.430549
2023-05-23T03:55:17.541Z,1010.483251
2023-05-23T04:00:18.286Z,1010.564870
2023-05-23T04:05:17.583Z,1010.637811
2023-05-23T04:10:17.520Z,1010.644162
2023-05-23T04:15:18.197Z,1010.666406
2023-05-23T04:20:17.733Z,1010.676491
2023-05-23T04:25:17.820Z,1010.680441
2023-05-23T04:30:17.608Z,1010.708089
2023-05-23T04:35:17.543Z,1010.724158
2023-05-23T04:40:17.501Z,1010.770300
2023-05-23T04:45:17.800Z,1010.727769
2023-05-23T04:50:17.599Z,1010.690675
2023-05-23T04:55:17.496Z,1010.647530
2023-05-23T05:00:17.577Z,1010.699603
2023-05-23T05:05:17.675Z,1010.701584
2023-05-23T05:10:17.555Z,1010.687542
2023-05-23T05:15:17.808Z,1010.720441
2023-05-23T05:20:17.512Z,1010.756032
2023-05-23T05:25:17.650Z,1010.768176
2023-05-23T05:30:17.708Z,1010.776602
2023-05-23T05:35:17.839Z,1010.855738
2023-05-23T05:40:17.575Z,1010.881377
2023-05-23T05:45:17.941Z,1010.959360
2023-05-23T05:50:17.820Z,1010.941595
2023-05-23T05:55:17.732Z,1011.028605
2023-05-23T06:00:17.524Z,1011.076539
2023-05-23T06:05:17.541Z,1011.136673
2023-05-23T06:10:18.087Z,1011.130141
2023-05-23T06:15:18.122Z,1011.134569
2023-05-23T06:20:17.470Z,1011.134611
2023-05-23T06:25:18.184Z,1011.114922
2023-05-23T06:30:17.587Z,1011.181881
2023-05-23T06:35:17.521Z,1011.156490
2023-05-23T06:40:17.599Z,1011.198140
2023-05-23T06:45:17.637Z,1011.266054
2023-05-23T06:50:17.604Z,1011.252059
2023-05-23T06:55:17.573Z,1011.291074
2023-05-23T07:00:18.060Z,1011.355687
2023-05-23T07:05:17.655Z,1011.388747
2023-05-23T07:10:17.657Z,1011.377192
2023-05-23T07:15:17.506Z,1011.370969
2023-05-23T07:20:17.947Z,1011.382971
2023-05-23T07:25:17.932Z,1011.432080
2023-05-23T07:30:17.505Z,1011.488324
2023-05-23T07:35:17.430Z,1011.513934
2023-05-23T07:40:17.700Z,1011.626940
2023-05-23T07:45:17.732Z,1011.681482
2023-05-23T07:50:18.003Z,1011.698212
2023-05-23T07:55:17.784Z,1011.729452
2023-05-23T08:00:17.467Z,1011.768903
2023-05-23T08:05:17.432Z,1011.757092
2023-05-23T08:10:17.945Z,1011.867018
2023-05-23T08:15:17.460Z,1012.025791
2023-05-23T08:20:17.460Z,1012.123400
2023-05-23T08:25:17.756Z,1012.184008
2023-05-23T08:30:17.559Z,1012.185971
2023-05-23T08:35:17.635Z,1012.254182
2023-05-23T08:40:17.436Z,1012.299283
2023-05-23T08:45:17.452Z,1012.296700
2023-05-23T08:50:20.075Z,1012.300685
2023-05-23T08:55:18.001Z,1012.322760
2023-05-23T09:00:17.556Z,1012.354726
2023-05-23T09:05:17.755Z,1012.445396
2023-05-23T09:10:17.883Z,1012.525904
2023-05-23T09:15:18.282Z,1012.582798
2023-05-23T09:20:17.703Z,1012.543128
2023-05-23T09:25:17.628Z,1012.606502
2023-05-23T09:30:17.612Z,1012.674481
2023-05-23T09:35:17.394Z,1012.713374
2023-05-23T09:40:17.787Z,1012.773771
2023-05-23T09:45:17.794Z,1012.862523
2023-05-23T09:50:17.492Z,1012.822924
2023-05-23T09:55:17.478Z,1012.816745
2023-05-23T10:00:17.620Z,1012.822155
2023-05-23T10:05:17.453Z,1012.729880
2023-05-23T10:10:17.565Z,1012.666652
2023-05-23T10:15:17.518Z,1012.622566
2023-05-23T10:20:17.770Z,1012.604898
2023-05-23T10:25:17.639Z,1012.539322
2023-05-23T10:30:17.479Z,1012.593706
2023-05-23T10:35:17.510Z,1012.596338
2023-05-23T10:40:17.466Z,1012.653312
2023-05-23T10:45:17.493Z,1012.724112
2023-05-23T10:50:17.476Z,1012.703184
2023-05-23T10:55:17.666Z,1012.700631
2023-05-23T11:00:17.505Z,1012.726932
2023-05-23T11:05:17.466Z,1012.734384
2023-05-23T11:10:17.328Z,1012.765139
2023-05-23T11:15:17.585Z,1012.780611
2023-05-23T11:20:17.640Z,1012.746938
2023-05-23T11:25:18.063Z,1012.800568
2023-05-23T11:30:17.902Z,1012.778231
2023-05-23T11:35:17.469Z,1012.714723
2023-05-23T11:40:17.695Z,1012.738901
2023-05-23T11:45:17.470Z,1012.718890
2023-05-23T11:50:18.947Z,1012.657440
2023-05-23T11:55:17.437Z,1012.686295
2023-05-23T12:00:17.482Z,1012.749942
2023-05-23T12:05:17.454Z,1012.739331
2023-05-23T12:10:17.659Z,1012.720318
2023-05-23T12:15:17.468Z,1012.756255
2023-05-23T12:20:17.444Z,1012.719745
2023-05-23T12:25:17.602Z,1012.794206
2023-05-23T12:30:17.615Z,1012.888385
2023-05-23T12:35:17.433Z,1012.999319
2023-05-23T12:40:17.482Z,1013.079920
2023-05-23T12:45:17.566Z,1013.149987
2023-05-23T12:50:17.775Z,1013.159052
2023-05-23T12:55:17.706Z,1013.139927
2023-05-23T13:00:17.396Z,1013.196038
2023-05-23T13:05:17.636Z,1013.235620
2023-05-23T13:10:17.295Z,1013.311191
2023-05-23T13:15:17.732Z,1013.357219
2023-05-23T13:20:17.375Z,1013.372494
2023-05-23T13:25:17.815Z,1013.395561
2023-05-23T13:30:17.539Z,1013.407412
2023-05-23T13:35:17.625Z,1013.474676
2023-05-23T13:40:17.541Z,1013.480730
2023-05-23T13:45:17.700Z,1013.534776
2023-05-23T13:50:18.216Z,1013.601399
2023-05-23T13:55:17.919Z,1013.661872
2023-05-23T14:00:17.397Z,1013.666583
2023-05-23T14:05:17.327Z,1013.687625
2023-05-23T14:10:17.729Z,1013.686653
2023-05-23T14:15:17.417Z,1013.750509
2023-05-23T14:20:17.791Z,1013.838556
2023-05-23T14:25:17.490Z,1013.883843
2023-05-23T14:30:17.650Z,1013.897239
2023-05-23T14:35:17.368Z,1013.902788
2023-05-23T14:40:17.396Z,1013.919129
2023-05-23T14:45:18.947Z,1014.006917
2023-05-23T14:50:17.287Z,1014.090885
2023-05-23T14:55:17.237Z,1014.182712
2023-05-23T15:00:17.327Z,1014.273334
2023-05-23T15:05:17.607Z,1014.321091
2023-05-23T15:10:17.364Z,1014.360685
2023-05-23T15:15:17.389Z,1014.460546
2023-05-23T15:20:17.416Z,1014.538154
2023-05-23T15:25:20.431Z,1014.562167
2023-05-23T15:30:17.312Z,1014.586854
2023-05-23T15:35:19.597Z,1014.602948
2023-05-23T15:40:17.480Z,1014.687398
2023-05-23T15:45:17.263Z,1014.647402
2023-05-23T15:50:17.264Z,1014.692578
2023-05-23T15:55:17.376Z,1014.774027
2023-05-23T16:00:17.409Z,1014.853205
2023-05-23T16:05:17.536Z,1014.835324
2023-05-23T16:10:17.453Z,1014.826332
2023-05-23T16:15:17.654Z,1014.865906
2023-05-23T16:20:17.478Z,1014.876588
2023-05-23T16:25:18.131Z,1014.901795
2023-05-23T16:30:17.445Z,1014.946063
2023-05-23T16:35:17.650Z,1015.056809
2023-05-23T16:40:19.804Z,1015.131654
2023-05-23T16:45:17.285Z,1015.182384
2023-05-23T16:50:17.415Z,1015.302764
2023-05-23T16:55:17.415Z,1015.322398
2023-05-23T17:00:18.016Z,1015.384813
2023-05-23T17:05:17.259Z,1015.365833
2023-05-23T17:10:20.098Z,1015.422589
2023-05-23T17:15:17.561Z,1015.471624
2023-05-23T17:20:17.401Z,1015.570052
2023-05-23T17:25:17.820Z,1015.705857
2023-05-23T17:30:17.243Z,1015.767966
2023-05-23T17:35:17.343Z,1015.872605
2023-05-23T17:40:17.681Z,1015.947676
2023-05-23T17:45:17.385Z,1016.044691
2023-05-23T17:50:17.387Z,1016.144589
2023-05-23T17:55:17.195Z,1016.167813
2023-05-23T18:00:17.264Z,1016.197700
2023-05-23T18:05:17.488Z,1016.219074
2023-05-23T18:10:17.462Z,1016.321505
2023-05-23T18:15:17.457Z,1016.369976
2023-05-23T18:20:17.254Z,1016.445212
2023-05-23T18:25:17.431Z,1016.476447
2023-05-23T18:30:17.625Z,1016.539524
2023-05-23T18:35:17.232Z,1016.626204
2023-05-23T18:40:17.575Z,1016.604600
2023-05-23T18:45:17.295Z,1016.639337
2023-05-23T18:50:17.489Z,1016.727877
2023-05-23T18:55:17.441Z,1016.816851
2023-05-23T19:00:17.986Z,1016.935541
2023-05-23T19:05:17.252Z,1016.987489
2023-05-23T19:10:17.897Z,1017.075953
2023-05-23T19:15:17.615Z,1017.135023
2023-05-23T19:20:17.656Z,1017.210279
2023-05-23T19:25:18.431Z,1017.282978
2023-05-23T19:30:17.743Z,1017.305284
2023-05-23T19:35:17.499Z,1017.354105
2023-05-23T19:40:17.182Z,1017.430822
2023-05-23T19:45:17.405Z,1017.452144
2023-05-23T19:50:17.478Z,1017.486371
2023-05-23T19:55:17.233Z,1017.507805
2023-05-23T20:00:17.265Z,1017.556486
2023-05-23T20:05:17.117Z,1017.569910
2023-05-23T20:10:17.549Z,1017.616001
2023-05-23T20:15:21.751Z,1017.705472
2023-05-23T20:20:17.386Z,1017.776667
2023-05-23T20:25:17.429Z,1017.781639
2023-05-23T20:30:17.473Z,1017.856878
2023-05-23T20:35:17.328Z,1017.905093
2023-05-23T20:40:17.269Z,1017.892813
2023-05-23T20:45:17.546Z,1017.885344
2023-05-23T20:50:17.237Z,1017.929505
2023-05-23T20:55:17.368Z,1017.997127
2023-05-23T21:00:17.372Z,1018.068608
2023-05-23T21:05:17.317Z,1018.109792
2023-05-23T21:10:17.432Z,1018.114186
2023-05-23T21:15:17.728Z,1018.188400
2023-05-23T21:20:17.846Z,1018.257024
2023-05-23T21:25:17.841Z,1018.310243
2023-05-23T21:30:17.551Z,1018.371665
2023-05-23T21:35:17.231Z,1018.383358
2023-05-23T21:40:17.418Z,1018.432842
2023-05-23T21:45:17.303Z,1018.476321
2023-05-23T21:50:17.235Z,1018.493019
2023-05-23T21:55:17.468Z,1018.498636
2023-05-23T22:00:17.370Z,1018.474988
2023-05-23T22:05:17.573Z,1018.513764
2023-05-23T22:10:17.269Z,1018.519143
2023-05-23T22:15:17.335Z,1018.513997
2023-05-23T22:20:17.420Z,1018.496985
2023-05-23T22:25:17.308Z,1018.577267
2023-05-23T22:30:17.233Z,1018.596300
2023-05-23T22:35:17.204Z,1018.558199
2023-05-23T22:40:17.358Z,1018.594858
2023-05-23T22:45:17.215Z,1018.616095
2023-05-23T22:50:17.189Z,1018.604518
2023-05-23T22:55:17.540Z,1018.573899
2023-05-23T23:00:17.264Z,1018.558418
2023-05-23T23:05:17.194Z,1018.552445
2023-05-23T23:10:17.081Z,1018.554557
2023-05-23T23:15:17.282Z,1018.644588
2023-05-23T23:20:17.456Z,1018.672454
2023-05-23T23:25:17.727Z,1018.689283
2023-05-23T23:30:17.272Z,1018.722681
2023-05-23T23:35:17.480Z,1018.745956
2023-05-23T23:40:17.152Z,1018.827547
2023-05-23T23:45:17.916Z,1018.842933
2023-05-23T23:50:17.158Z,1018.793207
2023-05-23T23:55:17.321Z,1018.806578
